Time;durP1;ratioP1;P1;durP2;ratioP2;P2;SDS_P1;SDS_P2;PMS_P1;PMS_P2;Temp;Humidity;BMP_temperature;BMP_pressure;BME280_temperature;BME280_humidity;BME280_pressure;Samples;Min_cycle;Max_cycle;Signal;HPM_P1;HPM_P2
2022/09/18 00:01:35;;;;;;;4.60;1.97;;;11.20;1.00;;;;;;5025395;28;20471;-83
2022/09/18 00:04:06;;;;;;;1.90;1.80;;;11.20;1.00;;;;;;5031061;28;20477;-81
2022/09/18 00:06:37;;;;;;;3.13;2.13;;;11.10;14.60;;;;;;5032082;28;20453;-81
2022/09/18 00:09:07;;;;;;;3.10;1.70;;;11.10;1.00;;;;;;5030445;28;20463;-81
2022/09/18 00:11:39;;;;;;;2.07;1.97;;;11.10;1.00;;;;;;5031085;28;20441;-82
2022/09/18 00:14:10;;;;;;;2.07;1.80;;;11.10;1.00;;;;;;5028282;28;20470;-81
2022/09/18 00:16:39;;;;;;;3.27;2.60;;;11.10;33.30;;;;;;5031232;28;20529;-81
2022/09/18 00:19:07;;;;;;;2.30;2.07;;;11.20;1.00;;;;;;5028631;28;20517;-81
2022/09/18 00:21:36;;;;;;;2.60;1.83;;;11.10;1.00;;;;;;5033790;28;20460;-81
2022/09/18 00:24:05;;;;;;;2.60;2.13;;;11.10;1.00;;;;;;5028832;28;20472;-81
2022/09/18 00:26:34;;;;;;;1.97;1.80;;;11.20;99.90;;;;;;5030990;28;20958;-82
2022/09/18 00:29:04;;;;;;;4.43;2.10;;;11.40;99.90;;;;;;5029632;28;20484;-81
2022/09/18 00:31:34;;;;;;;2.10;1.90;;;11.40;99.90;;;;;;5026202;28;21001;-81
2022/09/18 00:34:04;;;;;;;1.73;1.63;;;11.40;99.90;;;;;;5026874;28;20537;-81
2022/09/18 00:36:32;;;;;;;3.33;1.80;;;11.20;99.90;;;;;;5041401;28;20899;-81
2022/09/18 00:39:01;;;;;;;2.30;1.60;;;11.10;1.00;;;;;;5028315;28;20460;-81
2022/09/18 00:41:31;;;;;;;10.30;2.10;;;11.10;1.00;;;;;;5026939;28;20463;-81
2022/09/18 00:44:44;;;;;;;3.67;2.07;;;11.30;1.00;;;;;;5028014;28;20519;-81
2022/09/18 00:47:25;;;;;;;2.07;1.80;;;11.20;1.00;;;;;;5032625;28;20451;-83
2022/09/18 00:49:59;;;;;;;4.10;1.70;;;11.30;99.90;;;;;;5026171;28;20507;-81
2022/09/18 00:52:30;;;;;;;1.80;1.70;;;11.30;99.90;;;;;;5027043;28;20460;-82
2022/09/18 00:55:02;;;;;;;3.93;2.00;;;11.40;99.90;;;;;;5030300;28;20464;-81
2022/09/18 00:57:33;;;;;;;4.43;1.93;;;11.30;99.90;;;;;;5031928;28;20611;-82
2022/09/18 01:00:08;;;;;;;2.20;1.80;;;11.20;1.00;;;;;;5025054;28;20470;-82
2022/09/18 01:02:38;;;;;;;1.90;1.80;;;11.10;1.00;;;;;;5029485;28;20453;-81
2022/09/18 01:05:08;;;;;;;1.83;1.73;;;11.10;99.90;;;;;;5035144;28;20534;-82
2022/09/18 01:07:49;;;;;;;2.30;1.90;;;11.00;99.90;;;;;;5043126;28;21277;-82
2022/09/18 01:10:33;;;;;;;2.00;1.90;;;11.00;99.90;;;;;;5044298;28;20448;-81
2022/09/18 01:13:06;;;;;;;2.70;2.37;;;11.00;1.00;;;;;;5028986;28;20579;-80
2022/09/18 01:15:41;;;;;;;1.63;1.53;;;11.00;1.00;;;;;;5031953;28;20681;-82
2022/09/18 01:18:16;;;;;;;5.30;2.20;;;11.00;99.90;;;;;;5033818;28;20494;-82
2022/09/18 01:21:01;;;;;;;2.13;1.90;;;11.00;93.90;;;;;;5041639;28;20976;-82
2022/09/18 01:24:24;;;;;;;2.57;1.87;;;11.00;1.00;;;;;;5046044;28;20473;-82
2022/09/18 01:27:00;;;;;;;2.43;1.70;;;11.00;99.90;;;;;;4995379;28;20484;-81
2022/09/18 01:29:39;;;;;;;2.57;2.00;;;10.90;99.90;;;;;;5033547;28;20947;-80
2022/09/18 01:32:12;;;;;;;3.20;1.80;;;11.00;1.00;;;;;;5032840;28;20951;-80
2022/09/18 01:34:46;;;;;;;2.20;1.70;;;11.00;1.00;;;;;;5039898;28;20488;-81
2022/09/18 01:37:20;;;;;;;2.00;1.90;;;11.10;1.00;;;;;;5033083;28;20472;-80
2022/09/18 01:39:54;;;;;;;4.07;2.53;;;11.20;1.00;;;;;;5030715;28;20547;-81
2022/09/18 01:42:26;;;;;;;3.50;2.83;;;11.20;1.20;;;;;;5029877;28;20467;-83
2022/09/18 01:45:00;;;;;;;1.90;1.70;;;11.20;1.00;;;;;;5029999;28;21290;-80
2022/09/18 01:47:37;;;;;;;8.90;2.63;;;11.20;1.00;;;;;;5029551;28;20958;-80
2022/09/18 01:50:09;;;;;;;2.13;2.03;;;11.10;94.40;;;;;;5029831;28;20507;-80
2022/09/18 01:52:41;;;;;;;7.80;2.13;;;11.30;1.00;;;;;;5026810;28;20514;-81
2022/09/18 01:55:17;;;;;;;1.97;1.80;;;11.10;99.90;;;;;;5027102;28;20490;-81
2022/09/18 01:57:52;;;;;;;2.20;2.00;;;11.10;99.90;;;;;;5040333;28;21008;-82
2022/09/18 02:00:23;;;;;;;2.80;2.07;;;11.20;1.00;;;;;;5022009;28;20509;-82
2022/09/18 02:02:54;;;;;;;1.97;1.70;;;11.10;99.90;;;;;;5023012;28;20468;-82
2022/09/18 02:05:27;;;;;;;5.40;2.37;;;11.20;99.90;;;;;;5025571;28;20456;-82
2022/09/18 02:08:03;;;;;;;4.70;2.17;;;11.00;99.90;;;;;;5030244;28;20883;-81
2022/09/18 02:10:35;;;;;;;3.83;2.03;;;11.10;1.00;;;;;;5025992;28;20847;-83
2022/09/18 02:13:05;;;;;;;1.80;1.70;;;11.00;99.90;;;;;;5032521;28;20566;-83
2022/09/18 02:15:38;;;;;;;2.67;2.03;;;11.10;99.90;;;;;;5028748;28;20524;-83
2022/09/18 02:18:12;;;;;;;5.37;2.77;;;11.20;1.00;;;;;;5036624;28;20460;-81
2022/09/18 02:20:43;;;;;;;3.03;2.30;;;11.20;1.00;;;;;;5040268;28;20491;-82
2022/09/18 02:23:12;;;;;;;2.70;2.10;;;11.00;99.90;;;;;;5026676;28;20990;-82
2022/09/18 02:25:44;;;;;;;3.47;2.67;;;11.10;20.60;;;;;;5028480;28;20443;-81
2022/09/18 02:28:17;;;;;;;2.30;2.17;;;11.10;99.90;;;;;;5029014;28;20479;-81
2022/09/18 02:30:48;;;;;;;2.13;2.00;;;11.10;1.00;;;;;;5024400;28;20560;-81
2022/09/18 02:33:27;;;;;;;2.17;2.07;;;11.20;90.50;;;;;;5028733;28;20485;-81
2022/09/18 02:36:18;;;;;;;2.93;2.20;;;11.20;99.90;;;;;;5031450;28;20535;-81
2022/09/18 02:38:53;;;;;;;2.50;2.03;;;11.20;99.90;;;;;;5026973;28;20452;-82
2022/09/18 02:41:44;;;;;;;2.00;1.97;;;11.20;99.90;;;;;;5034529;28;20465;-81
2022/09/18 02:44:18;;;;;;;4.10;2.67;;;11.00;7.10;;;;;;5027621;28;21067;-82
2022/09/18 02:47:00;;;;;;;3.03;2.13;;;11.00;1.00;;;;;;5032700;28;20455;-81
2022/09/18 02:49:37;;;;;;;3.10;2.37;;;11.00;34.60;;;;;;5032516;28;20471;-82
2022/09/18 02:52:11;;;;;;;2.00;1.90;;;11.00;1.00;;;;;;5031129;28;20441;-82
2022/09/18 02:54:47;;;;;;;5.43;1.90;;;11.00;1.00;;;;;;5030533;28;20552;-81
2022/09/18 02:57:20;;;;;;;2.30;2.10;;;11.10;1.00;;;;;;5032543;28;20471;-82
2022/09/18 02:59:53;;;;;;;2.60;2.27;;;11.00;98.90;;;;;;5046764;28;20856;-82
2022/09/18 03:02:23;;;;;;;2.10;2.00;;;11.00;99.90;;;;;;5029321;28;20495;-82
2022/09/18 03:04:52;;;;;;;2.37;2.00;;;10.90;99.90;;;;;;5024284;28;20478;-82
2022/09/18 03:07:20;;;;;;;2.13;1.90;;;10.90;1.00;;;;;;5037429;28;20978;-81
2022/09/18 03:09:48;;;;;;;2.00;1.90;;;11.10;1.00;;;;;;5032182;28;20467;-82
2022/09/18 03:12:17;;;;;;;2.23;2.07;;;11.00;99.90;;;;;;5036724;28;20910;-82
2022/09/18 03:14:45;;;;;;;2.80;2.30;;;11.00;99.90;;;;;;5032815;28;20521;-84
2022/09/18 03:17:13;;;;;;;2.20;2.00;;;11.00;99.90;;;;;;5031824;28;20500;-82
2022/09/18 03:19:43;;;;;;;1.80;1.70;;;11.00;1.00;;;;;;5033205;28;20815;-82
2022/09/18 03:22:11;;;;;;;2.87;1.93;;;11.00;1.00;;;;;;5030156;28;20503;-82
2022/09/18 03:24:39;;;;;;;3.70;2.20;;;10.90;1.00;;;;;;5029343;28;20559;-83
2022/09/18 03:27:09;;;;;;;2.10;1.90;;;10.90;1.00;;;;;;5030726;28;20454;-81
2022/09/18 03:29:37;;;;;;;2.20;1.80;;;10.90;99.90;;;;;;5028652;28;20451;-83
2022/09/18 03:32:05;;;;;;;2.27;2.17;;;10.80;1.00;;;;;;5029711;28;20536;-81
2022/09/18 03:34:34;;;;;;;2.20;2.00;;;10.80;99.90;;;;;;5035367;28;20901;-82
2022/09/18 03:37:03;;;;;;;3.00;2.40;;;10.80;1.00;;;;;;5035140;28;20468;-83
2022/09/18 03:39:31;;;;;;;2.03;1.93;;;10.90;1.00;;;;;;5030346;28;20452;-83
2022/09/18 03:41:59;;;;;;;2.10;2.00;;;11.00;99.90;;;;;;5036085;28;20463;-83
2022/09/18 03:44:28;;;;;;;2.40;2.27;;;11.00;1.00;;;;;;5031917;28;20991;-83
2022/09/18 03:46:56;;;;;;;2.30;2.10;;;11.00;99.90;;;;;;5041254;28;20808;-82
2022/09/18 03:49:25;;;;;;;2.17;2.07;;;11.00;99.90;;;;;;5030256;28;20952;-83
2022/09/18 03:51:54;;;;;;;2.30;2.20;;;11.00;1.00;;;;;;5028836;28;20458;-83
2022/09/18 03:54:25;;;;;;;1.90;1.80;;;11.00;99.90;;;;;;5030820;28;20470;-82
2022/09/18 03:56:53;;;;;;;2.10;2.00;;;10.90;1.00;;;;;;5031262;28;20627;-82
2022/09/18 03:59:21;;;;;;;3.40;2.13;;;10.80;1.00;;;;;;5032437;28;20448;-83
2022/09/18 04:01:49;;;;;;;1.90;1.77;;;10.80;99.90;;;;;;5028183;28;20448;-83
2022/09/18 04:04:18;;;;;;;2.43;2.30;;;11.00;30.50;;;;;;5032685;28;20477;-83
2022/09/18 04:06:46;;;;;;;2.13;2.07;;;10.90;38.10;;;;;;5027505;28;20547;-82
2022/09/18 04:09:15;;;;;;;2.40;2.10;;;10.90;1.00;;;;;;5031653;28;20449;-83
2022/09/18 04:11:44;;;;;;;2.90;2.20;;;10.90;18.80;;;;;;5030786;28;20456;-83
2022/09/18 04:14:13;;;;;;;2.00;1.90;;;10.90;48.70;;;;;;5031442;28;20476;-83
2022/09/18 04:16:41;;;;;;;2.00;2.00;;;10.90;1.00;;;;;;5029881;28;20517;-82
2022/09/18 04:19:09;;;;;;;2.20;2.10;;;11.00;1.00;;;;;;5028412;28;20478;-83
2022/09/18 04:21:37;;;;;;;2.13;2.00;;;11.00;36.20;;;;;;5030382;28;20451;-83
2022/09/18 04:24:06;;;;;;;2.00;2.00;;;10.90;1.00;;;;;;5031108;28;22100;-84
2022/09/18 04:26:34;;;;;;;2.13;2.03;;;10.90;99.90;;;;;;5030079;28;20534;-83
2022/09/18 04:29:04;;;;;;;2.30;2.20;;;10.90;1.00;;;;;;5025669;28;20946;-80
2022/09/18 04:31:32;;;;;;;2.30;2.20;;;10.90;99.90;;;;;;5030586;28;20437;-81
2022/09/18 04:34:00;;;;;;;2.20;2.10;;;10.90;1.00;;;;;;5027291;28;20495;-80
2022/09/18 04:36:28;;;;;;;2.00;1.90;;;10.90;99.90;;;;;;5027833;28;20451;-84
2022/09/18 04:38:56;;;;;;;2.37;2.27;;;11.00;1.00;;;;;;5027675;28;20651;-81
2022/09/18 04:41:25;;;;;;;2.20;2.10;;;11.00;1.00;;;;;;5027307;28;20448;-83
2022/09/18 04:43:53;;;;;;;2.60;2.40;;;11.00;37.50;;;;;;5031588;28;20494;-83
2022/09/18 04:46:22;;;;;;;2.23;2.00;;;11.20;99.90;;;;;;5026471;28;20453;-83
2022/09/18 04:48:50;;;;;;;2.40;2.30;;;11.10;99.90;;;;;;5044118;28;20520;-83
2022/09/18 04:51:18;;;;;;;2.57;2.47;;;11.10;1.00;;;;;;5043277;28;20443;-81
2022/09/18 04:53:47;;;;;;;2.60;2.50;;;11.20;99.90;;;;;;5036790;28;21342;-81
2022/09/18 04:56:15;;;;;;;3.03;2.67;;;11.20;99.90;;;;;;5040970;28;20526;-81
2022/09/18 04:58:43;;;;;;;2.03;1.87;;;11.20;1.00;;;;;;5037725;28;20465;-82
2022/09/18 05:01:11;;;;;;;2.27;2.10;;;11.10;56.80;;;;;;5037847;28;20465;-82
2022/09/18 05:03:41;;;;;;;2.07;1.97;;;11.00;99.90;;;;;;5037357;28;20499;-81
2022/09/18 05:06:09;;;;;;;2.63;2.30;;;11.00;1.00;;;;;;5038774;28;20787;-81
2022/09/18 05:08:37;;;;;;;3.07;2.50;;;11.00;99.90;;;;;;5036923;28;20440;-81
2022/09/18 05:11:05;;;;;;;2.13;2.03;;;11.00;54.70;;;;;;5036364;28;21048;-82
2022/09/18 05:13:33;;;;;;;2.00;1.90;;;11.10;30.60;;;;;;5031025;28;20468;-81
2022/09/18 05:16:02;;;;;;;2.43;2.23;;;11.10;1.00;;;;;;5031138;28;20475;-82
2022/09/18 05:18:30;;;;;;;2.53;2.33;;;11.10;1.00;;;;;;5032394;28;20474;-81
2022/09/18 05:21:03;;;;;;;2.30;2.10;;;11.10;99.90;;;;;;5034118;28;20980;-80
2022/09/18 05:23:32;;;;;;;2.10;1.90;;;11.00;1.00;;;;;;5029747;28;20999;-81
2022/09/18 05:26:00;;;;;;;2.30;2.20;;;11.10;99.90;;;;;;5024645;28;21058;-82
2022/09/18 05:28:28;;;;;;;2.23;2.03;;;11.20;99.90;;;;;;5025736;28;20479;-81
2022/09/18 05:30:59;;;;;;;2.03;1.83;;;11.10;99.90;;;;;;5029684;28;20948;-82
2022/09/18 05:33:27;;;;;;;2.23;2.13;;;11.10;1.00;;;;;;5024838;28;20468;-80
2022/09/18 05:35:56;;;;;;;2.33;2.23;;;11.10;99.90;;;;;;5020396;28;20487;-79
2022/09/18 05:38:26;;;;;;;2.13;2.03;;;11.00;1.00;;;;;;5027823;28;20501;-80
2022/09/18 05:40:58;;;;;;;3.20;1.93;;;11.00;1.00;;;;;;5025024;28;20448;-79
2022/09/18 05:43:27;;;;;;;2.33;2.20;;;11.10;99.90;;;;;;5028075;28;20476;-81
2022/09/18 05:45:55;;;;;;;2.57;2.37;;;11.00;1.00;;;;;;5027221;28;20486;-81
2022/09/18 05:48:23;;;;;;;2.37;2.17;;;11.00;99.90;;;;;;5028702;28;20759;-80
2022/09/18 05:50:51;;;;;;;2.57;2.40;;;11.00;99.90;;;;;;5032058;28;20455;-82
2022/09/18 05:53:21;;;;;;;2.80;2.60;;;11.00;99.90;;;;;;5028901;28;20707;-82
2022/09/18 05:55:50;;;;;;;2.80;2.30;;;10.80;99.90;;;;;;5026190;28;20456;-82
2022/09/18 05:58:19;;;;;;;2.27;2.17;;;11.00;99.90;;;;;;5024672;28;20893;-81
2022/09/18 06:00:50;;;;;;;2.60;2.40;;;11.00;1.00;;;;;;5024568;28;20802;-82
2022/09/18 06:03:18;;;;;;;2.53;2.43;;;10.90;1.00;;;;;;5031539;28;20506;-81
2022/09/18 06:05:52;;;;;;;2.90;2.70;;;11.10;99.90;;;;;;5034810;28;20443;-82
2022/09/18 06:08:21;;;;;;;3.27;3.07;;;11.10;92.90;;;;;;5032749;28;20925;-83
2022/09/18 06:10:52;;;;;;;3.00;2.70;;;11.10;99.90;;;;;;5051137;28;20478;-81
2022/09/18 06:13:20;;;;;;;2.70;2.60;;;11.00;99.90;;;;;;5034372;28;20559;-80
2022/09/18 06:15:50;;;;;;;2.80;2.70;;;11.10;1.00;;;;;;5024192;28;20520;-81
2022/09/18 06:18:19;;;;;;;3.00;2.83;;;11.10;99.90;;;;;;5033160;28;20509;-81
2022/09/18 06:20:53;;;;;;;4.90;4.50;;;11.00;1.00;;;;;;5030536;28;20497;-81
2022/09/18 06:23:22;;;;;;;3.10;3.00;;;11.00;99.90;;;;;;5027327;28;20837;-83
2022/09/18 06:25:58;;;;;;;4.97;3.30;;;11.10;99.90;;;;;;5031962;28;20479;-81
2022/09/18 06:28:27;;;;;;;4.17;3.70;;;11.00;1.00;;;;;;5029075;28;20548;-80
2022/09/18 06:30:55;;;;;;;3.53;3.40;;;11.10;99.90;;;;;;5027953;28;20494;-80
2022/09/18 06:33:23;;;;;;;3.00;2.90;;;11.10;99.90;;;;;;5023720;28;20463;-79
2022/09/18 06:35:51;;;;;;;5.37;4.97;;;11.20;99.90;;;;;;5020238;28;20528;-79
2022/09/18 06:38:19;;;;;;;4.70;4.50;;;11.40;1.00;;;;;;5029440;28;20542;-77
2022/09/18 06:40:49;;;;;;;3.90;3.70;;;11.40;39.80;;;;;;5027218;28;20449;-80
2022/09/18 06:43:19;;;;;;;4.07;3.73;;;11.40;99.90;;;;;;5031445;28;20501;-80
2022/09/18 06:45:52;;;;;;;4.97;3.70;;;11.40;39.90;;;;;;5027666;28;20460;-80
2022/09/18 06:48:20;;;;;;;4.03;3.60;;;11.30;1.00;;;;;;5028836;28;20456;-80
2022/09/18 06:50:52;;;;;;;4.00;3.80;;;11.40;99.90;;;;;;5022698;28;20455;-80
2022/09/18 06:53:21;;;;;;;3.63;3.53;;;11.40;1.00;;;;;;5025143;28;20483;-79
2022/09/18 06:55:50;;;;;;;3.73;3.50;;;11.40;40.10;;;;;;5029241;28;21231;-79
2022/09/18 06:58:20;;;;;;;3.40;3.30;;;11.40;60.00;;;;;;5027694;28;20542;-79
2022/09/18 07:00:48;;;;;;;3.77;3.50;;;11.40;1.00;;;;;;5028400;28;20474;-79
2022/09/18 07:03:16;;;;;;;3.50;3.40;;;11.40;30.70;;;;;;5031457;28;20483;-80
2022/09/18 07:05:45;;;;;;;4.47;4.03;;;11.40;1.00;;;;;;5020806;28;20470;-80
2022/09/18 07:08:14;;;;;;;3.50;3.33;;;11.40;99.90;;;;;;5027682;28;20970;-80
2022/09/18 07:10:42;;;;;;;3.30;3.20;;;11.40;39.30;;;;;;5026347;28;20452;-80
2022/09/18 07:13:10;;;;;;;3.83;3.70;;;11.30;1.00;;;;;;5027583;28;20538;-80
2022/09/18 07:15:39;;;;;;;3.70;3.60;;;11.50;1.00;;;;;;5031413;28;20444;-80
2022/09/18 07:18:08;;;;;;;3.50;3.20;;;11.40;11.30;;;;;;5031291;28;20447;-81
2022/09/18 07:20:36;;;;;;;3.60;3.40;;;11.50;1.00;;;;;;5030295;28;20526;-80
2022/09/18 07:23:04;;;;;;;3.70;3.40;;;11.40;99.90;;;;;;5029241;28;20475;-80
2022/09/18 07:25:33;;;;;;;3.60;3.50;;;11.40;1.00;;;;;;5021904;28;20480;-80
2022/09/18 07:28:06;;;;;;;3.80;3.60;;;11.40;99.90;;;;;;5030783;28;20451;-80
2022/09/18 07:30:35;;;;;;;3.90;3.70;;;11.30;1.00;;;;;;5028088;28;20949;-80
2022/09/18 07:33:06;;;;;;;3.97;3.67;;;11.30;1.00;;;;;;5032338;28;20478;-80
2022/09/18 07:35:35;;;;;;;4.07;3.83;;;11.30;99.90;;;;;;5024926;28;20503;-79
2022/09/18 07:38:06;;;;;;;3.63;3.47;;;11.40;1.00;;;;;;5025269;28;20619;-80
2022/09/18 07:40:34;;;;;;;3.60;3.40;;;11.50;31.00;;;;;;5028056;28;20499;-80
2022/09/18 07:43:05;;;;;;;3.43;3.33;;;11.40;99.90;;;;;;5034958;28;20502;-81
2022/09/18 07:45:34;;;;;;;3.57;3.40;;;11.40;99.90;;;;;;5034345;28;20460;-79
2022/09/18 07:48:04;;;;;;;3.73;3.60;;;11.40;99.90;;;;;;5027702;28;20513;-79
2022/09/18 07:50:33;;;;;;;3.23;3.03;;;11.40;99.90;;;;;;5028846;28;20476;-79
2022/09/18 07:53:04;;;;;;;3.20;3.10;;;11.50;99.90;;;;;;5036455;28;20998;-79
2022/09/18 07:55:35;;;;;;;3.20;3.10;;;11.50;99.90;;;;;;5031748;28;20445;-79
2022/09/18 07:58:05;;;;;;;3.70;3.47;;;11.40;1.00;;;;;;5029879;28;20499;-80
2022/09/18 08:00:35;;;;;;;5.20;3.70;;;11.60;99.90;;;;;;5029235;28;20542;-78
2022/09/18 08:03:06;;;;;;;3.57;3.37;;;11.40;99.90;;;;;;5030332;28;20535;-79
2022/09/18 08:05:35;;;;;;;3.57;3.37;;;11.50;99.90;;;;;;5028614;28;20447;-78
2022/09/18 08:08:04;;;;;;;4.03;3.70;;;11.60;1.00;;;;;;5027358;28;20470;-79
2022/09/18 08:10:33;;;;;;;4.00;3.90;;;11.40;1.00;;;;;;5029347;28;20486;-79
2022/09/18 08:13:01;;;;;;;4.90;4.50;;;11.40;99.90;;;;;;5030120;28;20554;-79
2022/09/18 08:15:30;;;;;;;3.67;3.50;;;11.50;99.90;;;;;;5029114;28;20437;-79
2022/09/18 08:17:58;;;;;;;4.00;3.90;;;11.50;99.90;;;;;;5028531;28;20457;-79
2022/09/18 08:20:28;;;;;;;4.60;4.07;;;11.70;1.00;;;;;;5022830;28;20476;-79
2022/09/18 08:22:57;;;;;;;4.87;4.47;;;11.70;1.00;;;;;;5025434;28;20482;-79
2022/09/18 08:25:26;;;;;;;3.93;3.73;;;11.60;1.00;;;;;;5030815;28;20492;-79
2022/09/18 08:27:54;;;;;;;4.13;3.93;;;11.60;1.00;;;;;;5030439;28;20452;-79
2022/09/18 08:30:22;;;;;;;4.03;3.83;;;11.60;99.90;;;;;;5029280;28;20812;-79
2022/09/18 08:32:50;;;;;;;3.73;3.53;;;11.70;64.00;;;;;;5028168;28;20526;-79
2022/09/18 08:35:18;;;;;;;4.20;3.80;;;11.60;99.90;;;;;;5042967;28;20456;-79
2022/09/18 08:37:49;;;;;;;3.77;3.57;;;11.60;99.90;;;;;;5022257;28;20487;-80
2022/09/18 08:40:20;;;;;;;3.60;3.40;;;11.60;99.90;;;;;;5025540;28;20506;-79
2022/09/18 08:43:03;;;;;;;3.70;3.60;;;11.70;99.90;;;;;;5021117;28;20449;-80
2022/09/18 08:45:47;;;;;;;3.67;3.47;;;11.70;1.00;;;;;;5025048;28;20459;-79
2022/09/18 08:48:20;;;;;;;3.70;3.47;;;11.80;1.00;;;;;;5019708;28;20440;-80
2022/09/18 08:50:58;;;;;;;4.00;3.77;;;11.90;99.90;;;;;;5021491;28;20441;-81
2022/09/18 08:53:31;;;;;;;4.10;3.70;;;11.80;99.90;;;;;;5025152;28;20562;-78
2022/09/18 08:56:01;;;;;;;4.13;3.73;;;11.90;99.90;;;;;;5024602;28;20460;-78
2022/09/18 08:58:33;;;;;;;4.00;3.90;;;11.90;99.90;;;;;;5023693;28;20436;-77
2022/09/18 09:01:07;;;;;;;4.17;3.60;;;11.80;1.00;;;;;;5025000;28;21033;-79
2022/09/18 09:03:49;;;;;;;5.20;4.70;;;11.80;99.90;;;;;;5030043;28;21104;-79
2022/09/18 09:06:32;;;;;;;4.90;4.37;;;11.80;99.90;;;;;;5025421;28;20498;-78
2022/09/18 09:09:19;;;;;;;3.70;3.60;;;11.80;1.00;;;;;;5036624;28;20543;-79
2022/09/18 09:11:55;;;;;;;3.63;3.40;;;11.90;99.90;;;;;;5019162;28;20468;-79
2022/09/18 09:14:36;;;;;;;4.00;3.67;;;11.90;99.90;;;;;;5022594;28;20541;-79
2022/09/18 09:17:41;;;;;;;4.30;4.00;;;12.00;99.90;;;;;;5024479;28;21002;-80
2022/09/18 09:20:21;;;;;;;4.20;4.00;;;11.90;99.90;;;;;;5022003;28;20526;-80
2022/09/18 09:22:56;;;;;;;4.57;4.27;;;11.90;99.90;;;;;;5036823;28;20749;-79
2022/09/18 09:25:33;;;;;;;4.20;3.90;;;12.00;99.90;;;;;;5029321;28;20863;-78
2022/09/18 09:28:10;;;;;;;3.83;3.63;;;11.90;99.90;;;;;;5023811;28;20448;-80
2022/09/18 09:30:46;;;;;;;4.87;4.57;;;12.00;99.90;;;;;;5025511;28;20922;-78
2022/09/18 09:33:21;;;;;;;4.03;3.93;;;12.10;1.00;;;;;;5021576;28;20550;-78
2022/09/18 09:35:52;;;;;;;4.20;3.90;;;12.10;99.90;;;;;;5020186;28;20459;-79
2022/09/18 09:38:38;;;;;;;4.20;4.00;;;12.20;99.90;;;;;;5029284;28;20988;-78
2022/09/18 09:41:22;;;;;;;4.97;4.57;;;12.20;99.90;;;;;;5027683;28;20546;-78
2022/09/18 09:43:59;;;;;;;6.40;6.00;;;12.20;1.00;;;;;;5025434;28;20476;-78
2022/09/18 09:46:42;;;;;;;5.53;5.13;;;12.30;1.00;;;;;;5038533;28;20461;-79
2022/09/18 09:49:15;;;;;;;4.90;4.70;;;12.30;99.90;;;;;;5026457;28;20967;-79
2022/09/18 09:51:51;;;;;;;4.90;4.60;;;12.50;1.00;;;;;;5030466;28;20445;-79
2022/09/18 09:54:20;;;;;;;5.80;4.77;;;12.40;1.00;;;;;;5030774;28;20479;-81
2022/09/18 09:56:54;;;;;;;5.00;4.63;;;12.50;99.90;;;;;;5030328;28;20460;-78
2022/09/18 09:59:30;;;;;;;4.30;4.10;;;12.70;99.90;;;;;;5022456;28;20518;-79
2022/09/18 10:02:07;;;;;;;3.93;3.67;;;12.70;1.00;;;;;;5025590;28;20506;-78
2022/09/18 10:04:44;;;;;;;4.03;3.80;;;12.70;1.00;;;;;;5034886;28;20476;-79
2022/09/18 10:07:18;;;;;;;4.33;4.00;;;12.80;1.00;;;;;;5027683;28;20485;-79
2022/09/18 10:09:52;;;;;;;3.87;3.67;;;12.80;99.90;;;;;;5026761;28;20534;-78
2022/09/18 10:12:31;;;;;;;5.43;5.03;;;12.80;99.90;;;;;;5030100;28;20449;-80
2022/09/18 10:15:06;;;;;;;4.73;4.43;;;13.00;1.00;;;;;;5024863;28;20908;-77
2022/09/18 10:17:38;;;;;;;4.30;3.90;;;13.10;99.90;;;;;;5026373;28;20461;-78
2022/09/18 10:20:13;;;;;;;3.83;3.67;;;13.50;91.30;;;;;;5027019;28;20455;-78
2022/09/18 10:22:42;;;;;;;3.63;3.40;;;13.50;1.00;;;;;;5029371;28;20456;-78
2022/09/18 10:25:20;;;;;;;3.73;3.47;;;13.50;17.30;;;;;;5031743;28;20488;-78
2022/09/18 10:27:50;;;;;;;4.03;3.53;;;13.30;1.00;;;;;;5029250;28;20670;-77
2022/09/18 10:30:18;;;;;;;5.70;3.37;;;13.30;1.00;;;;;;5035806;28;20529;-77
2022/09/18 10:32:46;;;;;;;3.20;3.10;;;13.30;1.00;;;;;;5030180;28;20517;-77
2022/09/18 10:35:42;;;;;;;3.20;3.10;;;13.20;1.00;;;;;;5036367;28;20483;-78
2022/09/18 10:38:36;;;;;;;3.00;2.80;;;13.40;1.00;;;;;;5026401;28;20468;-78
2022/09/18 10:41:31;;;;;;;2.90;2.70;;;13.70;99.90;;;;;;5033617;28;20485;-79
2022/09/18 10:44:06;;;;;;;3.30;3.10;;;13.80;99.90;;;;;;5036011;28;21044;-79
2022/09/18 10:46:38;;;;;;;2.80;2.70;;;13.90;99.90;;;;;;5027689;28;20460;-80
2022/09/18 10:49:19;;;;;;;2.40;2.20;;;13.80;99.90;;;;;;5024535;28;20446;-79
2022/09/18 10:51:47;;;;;;;2.20;2.10;;;13.90;99.90;;;;;;5030879;28;20449;-79
2022/09/18 10:54:18;;;;;;;2.50;1.80;;;14.10;99.90;;;;;;5028854;28;20762;-80
2022/09/18 10:56:46;;;;;;;2.50;2.40;;;14.20;99.90;;;;;;5026345;28;20513;-80
2022/09/18 10:59:36;;;;;;;3.40;2.60;;;14.40;99.90;;;;;;5027700;28;20455;-82
2022/09/18 11:02:12;;;;;;;7.70;2.37;;;14.90;99.90;;;;;;5023885;28;20488;-79
2022/09/18 11:04:40;;;;;;;2.30;2.10;;;15.10;99.90;;;;;;5029423;28;20510;-80
2022/09/18 11:07:11;;;;;;;4.83;1.10;;;14.80;99.90;;;;;;5026600;28;20454;-81
2022/09/18 11:09:41;;;;;;;1.70;1.00;;;14.70;99.90;;;;;;5032677;28;20460;-79
2022/09/18 11:12:17;;;;;;;2.50;1.03;;;14.60;99.90;;;;;;5020289;28;20538;-80
2022/09/18 11:14:51;;;;;;;2.23;1.00;;;14.60;99.90;;;;;;5028289;28;20492;-80
2022/09/18 11:17:26;;;;;;;3.37;1.57;;;14.60;99.90;;;;;;5030602;28;20449;-81
2022/09/18 11:19:57;;;;;;;1.43;1.00;;;14.60;99.90;;;;;;5029355;28;21227;-80
2022/09/18 11:22:34;;;;;;;1.47;1.00;;;14.70;99.90;;;;;;5032268;28;21210;-80
2022/09/18 11:25:19;;;;;;;1.93;1.10;;;14.70;99.90;;;;;;5032443;28;20465;-82
2022/09/18 11:27:48;;;;;;;1.53;1.20;;;14.80;99.90;;;;;;5026384;28;20528;-79
2022/09/18 11:30:23;;;;;;;1.00;0.97;;;14.90;99.90;;;;;;5028583;28;20473;-81
2022/09/18 11:32:54;;;;;;;4.93;1.40;;;15.10;99.90;;;;;;5025027;28;20562;-80
2022/09/18 11:35:22;;;;;;;1.47;1.00;;;15.10;99.90;;;;;;5029858;28;20450;-81
2022/09/18 11:37:53;;;;;;;3.33;1.23;;;15.10;99.90;;;;;;5028809;28;20467;-80
2022/09/18 11:40:24;;;;;;;1.37;1.03;;;15.20;99.90;;;;;;5025805;28;20452;-80
2022/09/18 11:42:54;;;;;;;1.33;1.10;;;15.10;99.90;;;;;;5030755;28;20578;-83
2022/09/18 11:45:50;;;;;;;1.43;0.87;;;15.30;99.90;;;;;;5025890;28;20457;-81
2022/09/18 11:48:27;;;;;;;2.27;1.00;;;15.10;99.90;;;;;;5026277;28;20470;-80
2022/09/18 11:50:56;;;;;;;1.53;0.90;;;15.00;99.90;;;;;;5027810;28;20915;-79
2022/09/18 11:53:28;;;;;;;1.00;0.90;;;15.00;99.90;;;;;;5025034;28;21058;-82
2022/09/18 11:56:03;;;;;;;1.10;1.00;;;14.90;99.90;;;;;;5025797;28;20482;-79
2022/09/18 11:58:36;;;;;;;0.80;0.80;;;14.80;99.90;;;;;;5023649;28;20539;-80
2022/09/18 12:01:18;;;;;;;1.00;0.87;;;14.80;99.90;;;;;;5026460;28;20490;-81
2022/09/18 12:03:52;;;;;;;1.23;1.00;;;15.00;99.90;;;;;;5022400;28;20474;-83
2022/09/18 12:06:28;;;;;;;1.90;1.30;;;14.60;99.90;;;;;;5029460;28;20458;-81
2022/09/18 12:09:01;;;;;;;3.40;1.87;;;14.80;99.90;;;;;;5020928;28;20458;-81
2022/09/18 12:11:37;;;;;;;1.43;1.10;;;14.70;99.90;;;;;;5027646;28;20466;-81
2022/09/18 12:14:14;;;;;;;2.77;1.00;;;14.90;99.90;;;;;;5029438;28;20464;-81
2022/09/18 12:16:51;;;;;;;1.27;0.93;;;14.90;99.90;;;;;;5025129;28;20555;-80
2022/09/18 12:19:23;;;;;;;1.97;1.37;;;14.80;99.90;;;;;;5024331;28;20454;-80
2022/09/18 12:21:59;;;;;;;3.50;1.10;;;14.80;99.90;;;;;;5029148;28;20475;-82
2022/09/18 12:24:27;;;;;;;2.87;1.00;;;15.00;99.90;;;;;;5025599;28;21109;-83
2022/09/18 12:27:10;;;;;;;2.23;1.17;;;15.20;99.90;;;;;;5030936;28;20535;-79
2022/09/18 12:30:05;;;;;;;0.90;0.90;;;15.30;99.90;;;;;;5041260;28;21214;-79
2022/09/18 12:32:56;;;;;;;1.80;1.00;;;15.40;99.90;;;;;;5027166;28;21081;-80
2022/09/18 12:35:34;;;;;;;1.70;1.03;;;15.40;99.90;;;;;;5024293;28;20452;-80
2022/09/18 12:38:14;;;;;;;1.67;1.07;;;15.30;99.90;;;;;;5026770;28;20547;-81
2022/09/18 12:40:58;;;;;;;1.10;1.00;;;15.30;99.90;;;;;;5028254;28;20506;-81
2022/09/18 12:43:49;;;;;;;1.13;0.90;;;15.30;99.90;;;;;;5028553;28;20484;-80
2022/09/18 12:46:36;;;;;;;2.60;1.20;;;15.10;99.90;;;;;;5027142;28;20463;-82
2022/09/18 12:49:17;;;;;;;0.70;0.70;;;15.10;99.90;;;;;;5027116;28;20464;-81
2022/09/18 12:51:48;;;;;;;1.00;1.00;;;15.20;99.90;;;;;;5026559;28;20448;-82
2022/09/18 12:54:52;;;;;;;2.07;0.90;;;15.40;99.90;;;;;;5024777;28;20480;-81
2022/09/18 12:57:45;;;;;;;2.63;0.80;;;15.40;99.90;;;;;;5015249;28;20550;-82
2022/09/18 13:00:15;;;;;;;1.67;0.80;;;15.40;99.90;;;;;;5027242;28;20461;-80
2022/09/18 13:02:52;;;;;;;2.30;0.90;;;15.30;99.90;;;;;;5029546;28;21719;-81
2022/09/18 13:05:28;;;;;;;1.27;1.00;;;15.30;99.90;;;;;;5022898;28;21050;-80
2022/09/18 13:08:03;;;;;;;0.80;0.80;;;15.30;99.90;;;;;;5019699;28;20470;-79
2022/09/18 13:10:36;;;;;;;1.20;0.90;;;15.30;99.90;;;;;;5015918;28;20513;-78
2022/09/18 13:13:12;;;;;;;1.30;1.00;;;15.20;99.90;;;;;;5020326;28;20472;-79
2022/09/18 13:15:45;;;;;;;2.40;0.87;;;15.20;99.90;;;;;;5023805;28;20482;-81
2022/09/18 13:18:27;;;;;;;2.57;1.00;;;15.10;99.90;;;;;;5020813;28;20448;-79
2022/09/18 13:20:59;;;;;;;1.03;0.80;;;15.20;99.90;;;;;;5020233;28;20458;-79